Time;durP1;ratioP1;P1;durP2;ratioP2;P2;SDS_P1;SDS_P2;PMS_P1;PMS_P2;Temp;Humidity;BMP_temperature;BMP_pressure;BME280_temperature;BME280_humidity;BME280_pressure;Samples;Min_cycle;Max_cycle;Signal;HPM_P1;HPM_P2
2022/07/07 00:02:21;;;;;;;11.40;4.38;;;18.50;91.40;;;;;;5034785;28;20034;-81
2022/07/07 00:04:47;;;;;;;13.85;4.60;;;18.50;91.40;;;;;;5033998;28;20064;-82
2022/07/07 00:07:13;;;;;;;7.18;4.35;;;18.50;91.60;;;;;;5034716;28;20040;-82
2022/07/07 00:09:38;;;;;;;8.65;3.95;;;18.50;91.60;;;;;;5034729;28;20057;-80
2022/07/07 00:12:05;;;;;;;7.05;3.28;;;18.50;91.50;;;;;;5033479;28;20055;-81
2022/07/07 00:14:31;;;;;;;7.30;4.20;;;18.50;91.40;;;;;;5033338;28;20036;-81
2022/07/07 00:16:58;;;;;;;6.35;3.60;;;18.50;91.50;;;;;;5034390;28;20101;-81
2022/07/07 00:19:24;;;;;;;8.38;4.15;;;18.60;91.70;;;;;;5032965;28;20025;-81
2022/07/07 00:21:50;;;;;;;9.27;4.35;;;18.50;91.70;;;;;;5034371;28;20022;-81
2022/07/07 00:24:16;;;;;;;7.80;3.80;;;18.50;91.70;;;;;;5033050;28;20079;-81
2022/07/07 00:26:41;;;;;;;8.40;3.80;;;18.50;91.90;;;;;;5032719;28;20061;-81
2022/07/07 00:29:07;;;;;;;6.93;3.95;;;18.50;92.00;;;;;;5032985;28;20113;-81
2022/07/07 00:31:33;;;;;;;12.73;4.70;;;18.50;92.00;;;;;;5034230;28;20044;-81
2022/07/07 00:33:59;;;;;;;7.72;4.82;;;18.50;92.10;;;;;;5032851;28;20057;-81
2022/07/07 00:36:24;;;;;;;9.13;5.43;;;18.50;92.30;;;;;;5032670;28;20083;-81
2022/07/07 00:38:50;;;;;;;7.75;4.93;;;18.50;92.40;;;;;;5034015;28;20022;-82
2022/07/07 00:41:16;;;;;;;9.38;5.53;;;18.50;92.60;;;;;;5033970;28;20045;-82
2022/07/07 00:43:43;;;;;;;9.98;5.07;;;18.50;92.80;;;;;;5032781;28;20108;-81
2022/07/07 00:46:10;;;;;;;9.18;5.22;;;18.50;92.70;;;;;;5033804;28;20495;-82
2022/07/07 00:48:38;;;;;;;11.15;5.45;;;18.50;92.90;;;;;;5033779;28;20041;-82
2022/07/07 00:51:05;;;;;;;10.48;5.82;;;18.50;93.20;;;;;;5034089;28;20557;-81
2022/07/07 00:53:31;;;;;;;10.10;5.95;;;18.40;93.40;;;;;;5032589;28;20048;-81
2022/07/07 00:55:57;;;;;;;14.77;7.03;;;18.50;93.50;;;;;;5032731;28;20080;-81
2022/07/07 00:58:22;;;;;;;11.90;6.47;;;18.40;93.70;;;;;;5032565;28;20034;-81
2022/07/07 01:00:49;;;;;;;9.85;5.78;;;18.40;93.90;;;;;;5033782;28;20068;-81
2022/07/07 01:03:15;;;;;;;9.35;5.47;;;18.40;94.10;;;;;;5032688;28;20120;-80
2022/07/07 01:05:44;;;;;;;13.05;5.82;;;18.40;94.00;;;;;;5033210;28;20061;-81
2022/07/07 01:08:10;;;;;;;11.40;5.82;;;18.40;94.20;;;;;;5032467;28;20072;-81
2022/07/07 01:10:36;;;;;;;10.27;5.80;;;18.40;94.20;;;;;;5032468;28;20497;-82
2022/07/07 01:13:03;;;;;;;10.63;6.60;;;18.50;94.30;;;;;;5033534;28;20035;-80
2022/07/07 01:15:29;;;;;;;8.57;5.82;;;18.50;94.70;;;;;;5033528;28;20056;-81
2022/07/07 01:17:55;;;;;;;11.63;5.47;;;18.40;94.70;;;;;;5032149;28;20595;-81
2022/07/07 01:20:21;;;;;;;12.07;5.82;;;18.50;94.90;;;;;;5033364;28;20030;-81
2022/07/07 01:22:50;;;;;;;10.52;6.15;;;18.50;95.10;;;;;;5032157;28;20013;-80
2022/07/07 01:25:15;;;;;;;10.45;5.25;;;18.40;95.10;;;;;;5033383;28;20025;-80
2022/07/07 01:27:42;;;;;;;10.90;5.80;;;18.40;95.30;;;;;;5031964;28;20058;-82
2022/07/07 01:30:08;;;;;;;9.50;5.45;;;18.50;95.30;;;;;;5032497;28;20032;-81
2022/07/07 01:32:33;;;;;;;10.82;4.95;;;18.50;95.50;;;;;;5015686;28;20032;-81
2022/07/07 01:34:59;;;;;;;11.93;5.85;;;18.50;95.50;;;;;;5032104;28;20018;-82
2022/07/07 01:37:25;;;;;;;9.30;4.93;;;18.50;95.50;;;;;;5032117;28;20024;-81
2022/07/07 01:39:51;;;;;;;10.65;5.28;;;18.50;95.60;;;;;;5033289;28;20034;-81
2022/07/07 01:42:17;;;;;;;11.18;5.05;;;18.50;95.50;;;;;;5031964;28;20026;-81
2022/07/07 01:44:43;;;;;;;9.40;5.20;;;18.50;95.60;;;;;;5033186;28;20564;-81
2022/07/07 01:47:10;;;;;;;10.43;5.72;;;18.50;95.60;;;;;;5031879;28;20030;-82
2022/07/07 01:49:37;;;;;;;7.55;4.65;;;18.50;95.80;;;;;;5032992;28;20432;-81
2022/07/07 01:52:04;;;;;;;9.20;4.32;;;18.50;95.70;;;;;;5031884;28;20032;-80
2022/07/07 01:54:31;;;;;;;8.05;4.32;;;18.50;95.80;;;;;;5031826;28;20029;-80
2022/07/07 01:56:57;;;;;;;8.52;4.20;;;18.60;95.70;;;;;;5033095;28;20087;-80
2022/07/07 01:59:23;;;;;;;10.85;4.75;;;18.50;95.80;;;;;;5031834;28;20017;-81
2022/07/07 02:01:48;;;;;;;8.15;3.88;;;18.60;95.80;;;;;;5033036;28;20083;-81
2022/07/07 02:04:15;;;;;;;7.53;3.80;;;18.60;95.80;;;;;;5031697;28;20034;-80
2022/07/07 02:06:41;;;;;;;11.13;4.75;;;18.60;95.90;;;;;;5032880;28;20068;-80
2022/07/07 02:09:07;;;;;;;9.50;3.58;;;18.60;96.00;;;;;;5031824;28;20115;-81
2022/07/07 02:11:34;;;;;;;8.55;4.05;;;18.60;96.00;;;;;;5031772;28;20103;-81
2022/07/07 02:14:01;;;;;;;12.93;3.33;;;18.60;95.80;;;;;;5032938;28;20036;-81
2022/07/07 02:16:27;;;;;;;8.20;3.53;;;18.60;95.80;;;;;;5031682;28;20033;-81
2022/07/07 02:18:55;;;;;;;10.10;3.00;;;18.60;95.90;;;;;;5018637;28;20124;-82
2022/07/07 02:21:21;;;;;;;8.80;3.60;;;18.60;96.00;;;;;;5035455;28;20171;-80
2022/07/07 02:23:49;;;;;;;5.95;3.10;;;18.60;96.00;;;;;;5036547;28;20366;-81
2022/07/07 02:26:15;;;;;;;6.18;2.72;;;18.60;95.90;;;;;;5036540;28;20061;-81
2022/07/07 02:28:41;;;;;;;6.00;1.95;;;18.60;95.70;;;;;;5018729;28;20041;-81
2022/07/07 02:31:07;;;;;;;7.03;2.17;;;18.60;95.50;;;;;;5035274;28;20022;-81
2022/07/07 02:33:34;;;;;;;4.72;1.42;;;18.60;95.50;;;;;;5035285;28;20577;-80
2022/07/07 02:35:59;;;;;;;5.35;1.52;;;18.60;95.60;;;;;;5036203;28;20029;-81
2022/07/07 02:38:25;;;;;;;8.20;1.38;;;18.50;95.80;;;;;;5035190;28;20029;-82
2022/07/07 02:40:51;;;;;;;4.32;1.00;;;18.40;96.10;;;;;;5018496;28;20379;-84
2022/07/07 02:43:18;;;;;;;3.55;0.80;;;18.20;96.40;;;;;;5035054;28;20033;-82
2022/07/07 02:45:45;;;;;;;2.22;0.70;;;18.10;96.70;;;;;;5036216;28;20025;-83
2022/07/07 02:48:13;;;;;;;3.60;1.10;;;18.00;97.10;;;;;;5036295;28;20021;-81
2022/07/07 02:50:39;;;;;;;4.68;1.75;;;17.90;97.40;;;;;;5034865;28;20044;-82
2022/07/07 02:53:06;;;;;;;6.03;1.50;;;17.80;97.90;;;;;;5030783;28;20486;-83
2022/07/07 02:55:32;;;;;;;5.03;1.58;;;17.70;98.00;;;;;;5027942;28;20032;-84
2022/07/07 02:58:01;;;;;;;3.75;1.30;;;17.60;98.20;;;;;;5035822;28;20034;-82
2022/07/07 03:00:28;;;;;;;4.32;1.30;;;17.50;98.40;;;;;;5018048;28;20489;-82
2022/07/07 03:02:55;;;;;;;4.57;1.60;;;17.40;98.50;;;;;;5036153;28;20025;-81
2022/07/07 03:05:22;;;;;;;5.28;0.88;;;17.40;98.80;;;;;;5034581;28;20470;-80
2022/07/07 03:07:48;;;;;;;4.90;1.38;;;17.30;98.70;;;;;;5030499;28;20470;-82
2022/07/07 03:10:14;;;;;;;4.05;1.13;;;17.30;98.90;;;;;;5031279;28;20022;-81
2022/07/07 03:12:39;;;;;;;4.57;1.15;;;17.30;98.90;;;;;;5015712;28;20029;-80
2022/07/07 03:15:06;;;;;;;2.95;1.15;;;17.30;98.90;;;;;;5014789;28;20110;-80
2022/07/07 03:17:32;;;;;;;5.25;1.40;;;17.30;99.00;;;;;;5014661;28;20446;-83
2022/07/07 03:19:57;;;;;;;3.28;1.15;;;17.30;99.10;;;;;;5014551;28;20065;-82
2022/07/07 03:22:23;;;;;;;5.43;1.20;;;17.30;99.30;;;;;;5014504;28;20022;-82
2022/07/07 03:24:48;;;;;;;3.95;1.23;;;17.30;99.40;;;;;;5015630;28;20118;-80
2022/07/07 03:27:14;;;;;;;5.22;1.42;;;17.30;99.40;;;;;;5014402;28;20111;-81
2022/07/07 03:29:40;;;;;;;2.92;1.10;;;17.30;99.60;;;;;;5015260;28;20052;-81
2022/07/07 03:32:06;;;;;;;3.80;1.25;;;17.20;99.40;;;;;;5015642;28;20382;-81
2022/07/07 03:34:31;;;;;;;6.15;1.45;;;17.30;99.50;;;;;;5014248;28;20117;-80
2022/07/07 03:36:57;;;;;;;4.45;1.77;;;17.30;99.60;;;;;;5014153;28;20026;-81
2022/07/07 03:39:22;;;;;;;3.83;1.50;;;17.20;99.80;;;;;;5014211;28;20181;-83
2022/07/07 03:41:48;;;;;;;3.50;1.40;;;17.20;99.90;;;;;;4997957;28;20033;-81
2022/07/07 03:44:14;;;;;;;2.97;1.58;;;17.20;99.90;;;;;;4998036;28;20064;-82
2022/07/07 03:46:39;;;;;;;4.35;1.50;;;17.20;99.90;;;;;;5014143;28;20029;-84
2022/07/07 03:49:05;;;;;;;4.53;2.05;;;17.20;99.90;;;;;;5015599;28;20030;-81
2022/07/07 03:51:31;;;;;;;5.25;2.10;;;17.10;99.90;;;;;;5014113;28;20030;-81
2022/07/07 03:53:56;;;;;;;4.45;2.10;;;17.10;99.90;;;;;;4997621;28;20052;-83
2022/07/07 03:56:22;;;;;;;6.13;1.80;;;17.10;99.90;;;;;;5014017;28;20030;-82
2022/07/07 03:58:48;;;;;;;4.47;1.55;;;17.00;99.90;;;;;;4997779;28;20029;-82
2022/07/07 04:01:13;;;;;;;4.72;1.83;;;17.00;99.90;;;;;;5014141;28;20036;-83
2022/07/07 04:03:39;;;;;;;4.70;2.47;;;17.00;99.90;;;;;;4997567;28;20026;-82
2022/07/07 04:06:05;;;;;;;6.53;1.77;;;16.90;99.90;;;;;;5016840;28;20030;-80
2022/07/07 04:08:31;;;;;;;5.75;2.53;;;16.90;99.90;;;;;;5017586;28;20427;-82
2022/07/07 04:10:56;;;;;;;7.45;2.28;;;16.90;99.90;;;;;;5017138;28;20060;-83
2022/07/07 04:13:22;;;;;;;5.97;2.33;;;16.90;99.90;;;;;;5019122;28;20382;-82
2022/07/07 04:15:48;;;;;;;6.15;2.58;;;16.90;99.90;;;;;;5027300;28;20022;-81
2022/07/07 04:18:13;;;;;;;5.63;2.50;;;16.90;99.90;;;;;;5026081;28;20029;-82
2022/07/07 04:20:39;;;;;;;9.20;2.60;;;16.90;99.90;;;;;;5032946;28;20033;-82
2022/07/07 04:23:04;;;;;;;5.72;2.20;;;16.90;99.90;;;;;;5023982;28;20533;-83
2022/07/07 04:25:30;;;;;;;6.15;2.28;;;16.90;99.90;;;;;;5012399;28;20034;-81
2022/07/07 04:27:56;;;;;;;4.97;2.42;;;16.90;99.90;;;;;;5014375;28;20107;-82
2022/07/07 04:30:22;;;;;;;5.32;2.20;;;17.00;99.90;;;;;;5014521;28;20030;-81
2022/07/07 04:32:47;;;;;;;7.03;1.88;;;17.00;99.90;;;;;;5013356;28;20033;-80
2022/07/07 04:35:13;;;;;;;8.13;2.47;;;17.00;99.90;;;;;;5015253;28;20164;-82
2022/07/07 04:37:38;;;;;;;8.77;1.88;;;17.00;99.90;;;;;;4996817;28;20025;-82
2022/07/07 04:40:05;;;;;;;5.25;1.58;;;17.00;99.90;;;;;;5012415;28;20386;-81
2022/07/07 04:42:30;;;;;;;6.07;1.20;;;17.00;99.90;;;;;;4996813;28;20030;-82
2022/07/07 04:44:56;;;;;;;6.20;1.50;;;17.00;99.90;;;;;;5014324;28;20049;-83
2022/07/07 04:47:22;;;;;;;3.55;1.10;;;17.00;99.90;;;;;;5029071;28;20032;-82
2022/07/07 04:49:50;;;;;;;4.20;1.58;;;17.00;99.90;;;;;;5032826;28;20032;-82
2022/07/07 04:52:16;;;;;;;4.80;0.90;;;17.00;99.90;;;;;;5016311;28;20036;-82
2022/07/07 04:54:42;;;;;;;3.85;1.38;;;17.00;99.90;;;;;;5032709;28;20112;-82
2022/07/07 04:57:07;;;;;;;4.88;1.40;;;17.00;99.90;;;;;;4998846;28;20022;-82
2022/07/07 04:59:33;;;;;;;4.70;1.25;;;17.00;99.90;;;;;;5013189;28;20463;-81
2022/07/07 05:01:58;;;;;;;5.18;1.38;;;17.00;99.90;;;;;;4996637;28;20041;-82
2022/07/07 05:04:24;;;;;;;6.78;1.10;;;17.00;99.90;;;;;;5012949;28;20029;-81
2022/07/07 05:06:50;;;;;;;6.20;1.00;;;17.00;99.90;;;;;;5012763;28;20501;-81
2022/07/07 05:09:16;;;;;;;4.88;1.13;;;17.00;99.90;;;;;;5013062;28;20117;-83
2022/07/07 05:11:41;;;;;;;4.38;0.82;;;17.00;99.90;;;;;;5013932;28;20034;-80
2022/07/07 05:14:07;;;;;;;4.43;0.82;;;17.10;99.90;;;;;;5013904;28;20030;-81
2022/07/07 05:16:33;;;;;;;5.57;1.23;;;17.10;99.90;;;;;;5013998;28;20080;-81
2022/07/07 05:18:58;;;;;;;6.85;1.10;;;17.10;99.90;;;;;;5024396;28;20036;-80
2022/07/07 05:21:24;;;;;;;7.78;1.00;;;17.10;99.90;;;;;;5031098;28;20393;-79
2022/07/07 05:23:49;;;;;;;6.15;0.98;;;17.10;99.90;;;;;;5011211;28;20025;-81
2022/07/07 05:26:15;;;;;;;6.03;0.75;;;17.00;99.90;;;;;;5023401;28;20053;-81
2022/07/07 05:28:41;;;;;;;4.78;0.80;;;17.00;99.90;;;;;;5026832;28;20489;-82
2022/07/07 05:31:14;;;;;;;7.60;0.95;;;17.00;99.90;;;;;;5015665;28;20109;-80
2022/07/07 05:33:43;;;;;;;6.43;0.63;;;16.90;99.90;;;;;;5024433;28;20040;-79
2022/07/07 05:36:09;;;;;;;5.80;1.00;;;16.90;99.90;;;;;;5028776;28;20030;-82
2022/07/07 05:38:35;;;;;;;5.15;0.80;;;16.90;99.90;;;;;;5033352;28;20425;-80
2022/07/07 05:41:01;;;;;;;7.72;0.77;;;16.80;99.90;;;;;;5033320;28;20030;-83
2022/07/07 05:43:27;;;;;;;5.45;0.88;;;16.90;99.90;;;;;;5031855;28;20029;-81
2022/07/07 05:45:53;;;;;;;8.57;0.80;;;16.90;99.90;;;;;;5033207;28;20109;-82
2022/07/07 05:48:19;;;;;;;11.35;0.80;;;16.90;99.90;;;;;;5033077;28;20040;-81
2022/07/07 05:50:45;;;;;;;6.80;0.60;;;16.90;99.90;;;;;;5032221;28;20030;-81
2022/07/07 05:53:11;;;;;;;5.85;0.50;;;16.90;99.90;;;;;;5037316;28;20405;-80
2022/07/07 05:55:36;;;;;;;10.05;1.23;;;17.00;99.90;;;;;;5035942;28;20040;-81
2022/07/07 05:58:02;;;;;;;9.90;1.15;;;17.00;99.90;;;;;;5036669;28;20044;-82
2022/07/07 06:00:28;;;;;;;10.80;1.05;;;17.00;99.90;;;;;;5019377;28;20036;-81
2022/07/07 06:02:54;;;;;;;8.23;1.23;;;17.00;99.90;;;;;;5022493;28;20021;-81
2022/07/07 06:05:20;;;;;;;12.15;1.20;;;17.10;99.80;;;;;;5026830;28;20363;-81
2022/07/07 06:07:46;;;;;;;6.25;0.85;;;17.10;99.50;;;;;;5028752;28;20029;-81
2022/07/07 06:10:12;;;;;;;8.43;1.30;;;17.20;99.40;;;;;;5027177;28;20080;-81
2022/07/07 06:12:42;;;;;;;10.68;0.93;;;17.10;98.90;;;;;;5016433;28;20040;-81
2022/07/07 06:15:08;;;;;;;10.07;1.10;;;17.20;99.00;;;;;;5032149;28;20053;-79
2022/07/07 06:17:34;;;;;;;7.68;1.00;;;17.20;98.90;;;;;;5037823;28;20112;-81
2022/07/07 06:20:00;;;;;;;10.82;1.08;;;17.30;98.70;;;;;;5037721;28;20508;-80
2022/07/07 06:22:26;;;;;;;8.15;0.90;;;17.20;98.70;;;;;;5038212;28;20043;-81
2022/07/07 06:24:52;;;;;;;5.72;0.70;;;17.20;98.90;;;;;;5036314;28;20060;-81
2022/07/07 06:27:18;;;;;;;6.13;0.93;;;17.10;98.90;;;;;;5035676;28;20055;-82
2022/07/07 06:29:44;;;;;;;6.65;0.95;;;17.10;98.60;;;;;;5036613;28;20041;-82
2022/07/07 06:32:10;;;;;;;4.10;0.60;;;17.00;98.60;;;;;;5035870;28;20026;-81
2022/07/07 06:34:36;;;;;;;7.68;1.15;;;17.00;98.70;;;;;;5036629;28;20038;-83
2022/07/07 06:37:02;;;;;;;6.72;0.63;;;17.00;98.70;;;;;;5032781;28;20381;-81
2022/07/07 06:39:28;;;;;;;4.38;0.57;;;17.00;98.70;;;;;;5034759;28;20036;-82
2022/07/07 06:41:53;;;;;;;8.02;0.90;;;17.00;98.60;;;;;;5035040;28;20084;-82
2022/07/07 06:44:19;;;;;;;9.82;1.30;;;17.00;98.50;;;;;;5027427;28;20448;-82
2022/07/07 06:46:45;;;;;;;5.05;0.73;;;16.90;98.50;;;;;;5035124;28;20044;-83
2022/07/07 06:49:12;;;;;;;6.82;0.60;;;17.00;98.60;;;;;;5020773;28;20034;-82
2022/07/07 06:51:38;;;;;;;8.70;1.45;;;17.00;98.70;;;;;;4998700;28;20030;-82
2022/07/07 06:54:04;;;;;;;9.38;0.80;;;16.90;98.50;;;;;;5018000;28;20040;-81
2022/07/07 06:56:30;;;;;;;6.78;1.23;;;17.00;98.50;;;;;;5033253;28;20101;-80
2022/07/07 06:58:55;;;;;;;5.28;0.82;;;17.00;98.30;;;;;;5021741;28;20022;-80
2022/07/07 07:01:21;;;;;;;9.50;1.00;;;17.00;98.40;;;;;;5014938;28;20084;-81
2022/07/07 07:03:46;;;;;;;8.38;0.80;;;17.10;98.30;;;;;;5014375;28;20032;-81
2022/07/07 07:06:14;;;;;;;8.65;0.70;;;17.10;98.20;;;;;;5016693;28;20026;-80
2022/07/07 07:08:39;;;;;;;5.50;0.63;;;17.20;98.20;;;;;;5020202;28;20037;-80
2022/07/07 07:11:05;;;;;;;7.22;0.95;;;17.30;98.00;;;;;;5014794;28;20550;-82
2022/07/07 07:13:31;;;;;;;6.88;1.15;;;17.30;97.60;;;;;;5012254;28;20033;-79
2022/07/07 07:15:57;;;;;;;6.82;0.80;;;17.40;97.60;;;;;;5030027;28;20025;-81
2022/07/07 07:18:23;;;;;;;4.93;0.70;;;17.40;97.40;;;;;;5035672;28;20367;-83
2022/07/07 07:20:48;;;;;;;5.25;0.68;;;17.50;97.40;;;;;;5034652;28;20136;-85
2022/07/07 07:23:14;;;;;;;7.43;0.80;;;17.50;97.50;;;;;;5001933;28;20036;-84
2022/07/07 07:25:40;;;;;;;6.30;0.90;;;17.50;97.50;;;;;;5008826;28;20041;-84
2022/07/07 07:28:05;;;;;;;5.70;0.70;;;17.40;97.80;;;;;;5032205;28;20049;-82
2022/07/07 07:30:31;;;;;;;2.40;0.40;;;17.40;97.70;;;;;;5035335;28;20389;-82
2022/07/07 07:32:57;;;;;;;8.77;1.33;;;17.40;97.80;;;;;;5036086;28;20104;-84
2022/07/07 07:35:22;;;;;;;4.15;0.65;;;17.40;97.90;;;;;;5034417;28;20031;-84
2022/07/07 07:37:48;;;;;;;2.75;0.40;;;17.50;97.90;;;;;;5034400;28;20421;-84
2022/07/07 07:40:14;;;;;;;4.82;0.60;;;17.50;98.00;;;;;;5001405;28;20056;-83
2022/07/07 07:42:40;;;;;;;4.10;0.40;;;17.40;97.80;;;;;;5035716;28;20029;-84
2022/07/07 07:45:09;;;;;;;6.88;0.50;;;17.40;97.80;;;;;;5035270;28;20113;-82
2022/07/07 07:47:46;;;;;;;3.97;0.60;;;17.40;97.80;;;;;;5033982;28;20477;-81
2022/07/07 07:50:15;;;;;;;2.22;0.30;;;17.30;97.70;;;;;;5033962;28;20025;-81
2022/07/07 07:52:42;;;;;;;3.65;0.50;;;17.30;97.30;;;;;;5035817;28;20045;-83
2022/07/07 07:55:10;;;;;;;4.20;0.50;;;17.40;97.60;;;;;;5034436;28;20033;-83
2022/07/07 07:57:36;;;;;;;1.85;0.30;;;17.40;97.40;;;;;;5035203;28;20028;-84
2022/07/07 08:00:07;;;;;;;5.70;0.60;;;17.50;97.40;;;;;;5017367;28;20489;-83
2022/07/07 08:02:32;;;;;;;4.47;0.60;;;17.60;97.30;;;;;;5035225;28;20030;-83
2022/07/07 08:04:58;;;;;;;8.30;0.60;;;17.60;97.10;;;;;;5034855;28;20030;-84
2022/07/07 08:07:24;;;;;;;6.88;0.90;;;17.60;97.00;;;;;;5034893;28;20477;-83
2022/07/07 08:09:49;;;;;;;6.82;0.80;;;17.70;97.20;;;;;;5017121;28;20051;-83
2022/07/07 08:12:15;;;;;;;4.68;1.00;;;17.80;97.10;;;;;;5009958;28;20508;-84
2022/07/07 08:14:41;;;;;;;4.95;0.60;;;17.90;96.90;;;;;;5026988;28;20104;-81
2022/07/07 08:17:07;;;;;;;5.55;0.85;;;17.90;96.30;;;;;;5034909;28;20109;-84
2022/07/07 08:19:32;;;;;;;7.10;0.90;;;18.00;96.40;;;;;;5033440;28;20053;-83
2022/07/07 08:21:58;;;;;;;7.18;1.15;;;18.00;96.40;;;;;;5013469;28;20084;-83
2022/07/07 08:24:25;;;;;;;11.23;2.42;;;18.20;96.30;;;;;;5014922;28;20439;-84
2022/07/07 08:26:51;;;;;;;4.13;0.47;;;18.30;96.30;;;;;;5034486;28;20045;-82
2022/07/07 08:29:17;;;;;;;5.07;0.80;;;18.40;95.80;;;;;;5024445;28;20037;-83
2022/07/07 08:31:42;;;;;;;6.85;0.70;;;18.50;95.30;;;;;;5013503;28;20037;-85
2022/07/07 08:34:08;;;;;;;6.57;0.75;;;18.60;95.20;;;;;;5016015;28;20029;-82
2022/07/07 08:36:34;;;;;;;3.30;0.65;;;18.60;94.60;;;;;;5000319;28;20053;-84
2022/07/07 08:39:00;;;;;;;3.95;0.95;;;18.60;94.40;;;;;;5016771;28;20124;-83
2022/07/07 08:41:26;;;;;;;3.20;0.52;;;18.50;94.40;;;;;;5016866;28;20029;-84
2022/07/07 08:43:52;;;;;;;3.88;0.52;;;18.40;94.70;;;;;;5034810;28;20477;-84
2022/07/07 08:46:18;;;;;;;3.50;0.30;;;18.30;95.10;;;;;;5016589;28;20018;-83
2022/07/07 08:48:44;;;;;;;4.35;0.70;;;18.30;95.30;;;;;;5032505;28;20203;-84
2022/07/07 08:51:10;;;;;;;5.00;0.63;;;18.30;95.40;;;;;;5024760;28;20037;-84
2022/07/07 08:53:38;;;;;;;4.78;0.90;;;18.30;95.30;;;;;;5013161;28;20096;-84
2022/07/07 08:56:06;;;;;;;2.40;0.40;;;18.30;95.30;;;;;;5013029;28;20458;-84
2022/07/07 08:58:35;;;;;;;3.50;0.30;;;18.30;95.10;;;;;;5015511;28;20033;-83
2022/07/07 09:01:05;;;;;;;1.23;0.20;;;18.40;95.20;;;;;;4996903;28;20033;-83
2022/07/07 09:03:31;;;;;;;1.73;0.30;;;18.50;95.20;;;;;;5013348;28;20084;-83
2022/07/07 09:05:57;;;;;;;1.30;0.20;;;18.70;94.90;;;;;;5014931;28;20038;-83
2022/07/07 09:08:25;;;;;;;3.28;0.30;;;18.70;94.30;;;;;;5015285;28;20029;-83
2022/07/07 09:10:51;;;;;;;1.58;0.22;;;18.80;94.00;;;;;;5014391;28;20490;-85
2022/07/07 09:13:33;;;;;;;3.67;0.50;;;18.90;93.60;;;;;;5014098;28;20041;-84
2022/07/07 09:16:01;;;;;;;2.13;0.20;;;18.90;93.40;;;;;;5030452;28;20026;-84
2022/07/07 09:18:39;;;;;;;1.23;0.20;;;18.90;93.10;;;;;;5033815;28;20021;-83
2022/07/07 09:21:28;;;;;;;2.35;0.22;;;18.90;93.20;;;;;;5034419;28;20030;-84
2022/07/07 09:23:57;;;;;;;0.85;0.20;;;18.90;93.20;;;;;;5035758;28;20032;-84
2022/07/07 09:26:36;;;;;;;2.50;0.28;;;19.00;93.30;;;;;;5033483;28;20033;-83
2022/07/07 09:29:03;;;;;;;2.30;0.20;;;19.10;93.40;;;;;;5032357;28;20516;-81
2022/07/07 09:32:02;;;;;;;1.75;0.30;;;19.20;93.30;;;;;;5032423;28;20395;-83
2022/07/07 09:34:31;;;;;;;2.80;0.22;;;19.30;93.00;;;;;;5012637;28;20390;-86
2022/07/07 09:39:47;;;;;;;2.28;0.40;;;19.30;92.50;;;;;;5013972;28;20454;-84
2022/07/07 09:42:25;;;;;;;2.47;0.32;;;19.30;92.20;;;;;;5012359;28;20026;-84
2022/07/07 09:45:11;;;;;;;0.90;0.20;;;19.30;92.10;;;;;;5013818;28;20106;-85
2022/07/07 09:47:38;;;;;;;3.15;0.30;;;19.30;91.90;;;;;;5012387;28;20048;-83
2022/07/07 09:50:09;;;;;;;3.17;0.40;;;19.30;91.50;;;;;;5013633;28;20026;-84
2022/07/07 09:52:36;;;;;;;2.53;0.28;;;19.10;91.50;;;;;;5012387;28;20022;-85
2022/07/07 09:55:04;;;;;;;2.85;0.40;;;19.10;91.60;;;;;;5022659;28;20108;-83
2022/07/07 09:57:30;;;;;;;4.55;0.30;;;19.00;91.90;;;;;;5016980;28;20022;-84
2022/07/07 09:59:55;;;;;;;2.63;0.20;;;19.00;92.20;;;;;;5018979;28;20167;-85
2022/07/07 10:02:26;;;;;;;1.90;0.30;;;19.00;92.20;;;;;;5031791;28;20053;-84
2022/07/07 10:04:58;;;;;;;2.13;0.20;;;19.10;92.50;;;;;;5031939;28;20033;-85
2022/07/07 10:07:26;;;;;;;1.70;0.32;;;19.20;92.40;;;;;;5031310;28;20069;-83
2022/07/07 10:09:54;;;;;;;1.80;0.20;;;19.30;92.40;;;;;;5018074;28;20068;-83
2022/07/07 10:12:22;;;;;;;1.60;0.22;;;19.50;92.30;;;;;;5022208;28;20022;-83
2022/07/07 10:14:50;;;;;;;1.80;0.20;;;19.70;92.10;;;;;;5017512;28;20026;-84
2022/07/07 10:17:17;;;;;;;2.78;0.30;;;19.80;91.90;;;;;;5012270;28;20394;-83
2022/07/07 10:19:44;;;;;;;3.95;0.32;;;20.00;91.60;;;;;;5012353;28;20034;-82
2022/07/07 10:22:12;;;;;;;2.88;0.30;;;20.10;91.10;;;;;;5013649;28;20022;-84
2022/07/07 10:24:39;;;;;;;2.15;0.22;;;20.20;90.60;;;;;;5017171;28;20022;-84
2022/07/07 10:27:05;;;;;;;2.50;0.20;;;20.30;90.40;;;;;;5026888;28;20063;-85
2022/07/07 10:29:44;;;;;;;4.30;0.73;;;20.30;90.10;;;;;;5011919;28;20034;-84
2022/07/07 10:32:13;;;;;;;1.60;0.40;;;20.20;90.00;;;;;;5012640;28;20026;-82
2022/07/07 10:34:47;;;;;;;2.45;0.40;;;20.10;90.10;;;;;;5015971;28;20104;-83
2022/07/07 10:37:12;;;;;;;1.70;0.20;;;20.00;90.20;;;;;;5014282;28;20022;-86
2022/07/07 10:39:45;;;;;;;4.45;0.50;;;19.90;90.30;;;;;;5034694;28;20036;-83
2022/07/07 10:42:17;;;;;;;3.37;0.40;;;19.80;90.40;;;;;;5035143;28;20068;-82
2022/07/07 10:44:51;;;;;;;5.47;0.68;;;19.70;90.70;;;;;;5037007;28;20036;-82
2022/07/07 10:47:16;;;;;;;2.75;0.40;;;19.70;91.10;;;;;;5015257;28;20033;-85
2022/07/07 10:49:51;;;;;;;1.63;0.55;;;19.70;91.10;;;;;;5015527;28;20378;-85
2022/07/07 10:52:41;;;;;;;1.60;0.40;;;19.60;91.40;;;;;;5015672;28;20282;-84
2022/07/07 10:55:07;;;;;;;2.90;0.30;;;19.70;91.60;;;;;;5019603;28;20038;-83
2022/07/07 10:57:45;;;;;;;2.08;0.30;;;19.90;91.60;;;;;;5010104;28;20038;-82
2022/07/07 11:00:19;;;;;;;1.65;0.40;;;20.10;91.50;;;;;;5036535;28;20025;-81
2022/07/07 11:02:47;;;;;;;;;;;20.40;91.50;;;;;;5036895;28;20473;-82
2022/07/07 11:05:12;;;;;;;2.33;0.40;;;20.80;91.30;;;;;;5035617;28;19958;-83
2022/07/07 11:07:39;;;;;;;4.05;0.50;;;21.30;91.30;;;;;;5034847;28;20487;-78
2022/07/07 11:10:09;;;;;;;5.15;0.40;;;21.60;88.90;;;;;;5034549;28;20112;-80
2022/07/07 11:12:40;;;;;;;2.88;0.50;;;21.70;85.70;;;;;;5036356;28;20095;-81
2022/07/07 11:15:21;;;;;;;1.48;0.30;;;21.60;84.50;;;;;;5034582;28;20032;-82
2022/07/07 11:17:49;;;;;;;3.45;0.40;;;21.40;85.50;;;;;;5035478;28;20040;-86
2022/07/07 11:20:20;;;;;;;1.15;0.30;;;21.20;85.90;;;;;;5034931;28;20032;-88
2022/07/07 11:22:52;;;;;;;2.30;0.40;;;20.90;87.90;;;;;;5036072;28;20104;-85
2022/07/07 11:25:24;;;;;;;4.07;0.60;;;20.80;89.10;;;;;;5018860;28;20105;-86
2022/07/07 11:27:51;;;;;;;5.05;0.52;;;20.60;90.00;;;;;;4998350;28;20052;-86
2022/07/07 11:30:24;;;;;;;1.65;0.60;;;20.50;90.20;;;;;;5022001;28;20037;-85
2022/07/07 11:32:51;;;;;;;5.05;0.60;;;20.60;90.80;;;;;;5033582;28;20029;-86
2022/07/07 11:35:17;;;;;;;3.25;0.50;;;21.00;90.90;;;;;;5034907;28;20030;-86
2022/07/07 11:37:45;;;;;;;3.83;0.65;;;21.20;90.60;;;;;;5034423;28;20032;-88
2022/07/07 11:40:14;;;;;;;4.25;0.50;;;21.20;90.00;;;;;;5034317;28;20163;-88
2022/07/07 11:42:43;;;;;;;3.70;0.57;;;21.00;90.00;;;;;;5035398;28;20029;-86
2022/07/07 11:45:27;;;;;;;3.85;0.80;;;21.00;90.00;;;;;;5034541;28;20104;-87
2022/07/07 11:47:57;;;;;;;5.15;0.70;;;20.90;89.80;;;;;;5035165;28;20441;-83
2022/07/07 11:50:23;;;;;;;3.38;0.40;;;20.80;90.00;;;;;;5034427;28;20032;-84
2022/07/07 11:52:52;;;;;;;1.90;0.40;;;20.70;90.10;;;;;;5035088;28;20504;-82
2022/07/07 11:55:19;;;;;;;4.20;0.68;;;20.70;90.30;;;;;;5035254;28;20013;-83
2022/07/07 11:57:53;;;;;;;2.13;0.70;;;20.80;90.50;;;;;;5018101;28;20025;-82
2022/07/07 12:00:21;;;;;;;2.28;0.50;;;20.80;90.00;;;;;;5034558;28;20128;-82
2022/07/07 12:02:49;;;;;;;4.65;0.60;;;20.80;89.70;;;;;;5035254;28;20021;-86
2022/07/07 12:05:20;;;;;;;2.55;0.50;;;20.90;89.40;;;;;;5036191;28;20029;-86
2022/07/07 12:08:03;;;;;;;5.20;0.70;;;21.00;88.90;;;;;;5034047;28;20025;-84
2022/07/07 12:10:32;;;;;;;3.60;0.52;;;21.10;88.80;;;;;;5018103;28;20477;-84
2022/07/07 12:13:12;;;;;;;4.20;0.60;;;21.20;88.60;;;;;;5035089;28;20029;-84
2022/07/07 12:15:43;;;;;;;3.97;0.60;;;21.30;88.10;;;;;;5033924;28;20028;-83
2022/07/07 12:18:10;;;;;;;3.47;0.73;;;21.30;87.60;;;;;;5033248;28;20031;-84
2022/07/07 12:20:38;;;;;;;2.97;0.50;;;21.30;87.70;;;;;;5013732;28;20033;-84
2022/07/07 12:23:06;;;;;;;3.22;0.52;;;21.20;87.80;;;;;;4997862;28;20033;-84
2022/07/07 12:25:33;;;;;;;4.10;0.50;;;21.10;87.40;;;;;;5013400;28;20076;-86
2022/07/07 12:28:02;;;;;;;6.10;0.85;;;20.90;87.20;;;;;;5005262;28;20061;-84
2022/07/07 12:30:29;;;;;;;7.15;1.33;;;21.00;86.40;;;;;;5014421;28;20025;-84
2022/07/07 12:32:55;;;;;;;7.65;0.95;;;21.00;86.70;;;;;;5013877;28;20712;-85
2022/07/07 12:35:34;;;;;;;11.55;1.55;;;21.50;86.80;;;;;;4997437;28;20026;-85
2022/07/07 12:38:02;;;;;;;9.25;1.35;;;21.80;85.90;;;;;;5015081;28;20036;-84
2022/07/07 12:40:30;;;;;;;6.35;1.02;;;22.00;84.30;;;;;;5013805;28;20423;-85
2022/07/07 12:42:56;;;;;;;11.45;1.08;;;22.10;81.80;;;;;;5013110;28;20030;-86
2022/07/07 12:45:23;;;;;;;8.15;1.52;;;22.00;80.30;;;;;;5029772;28;20056;-86
2022/07/07 12:47:53;;;;;;;9.80;1.42;;;21.90;79.20;;;;;;5015233;28;20034;-85
2022/07/07 12:50:21;;;;;;;4.45;0.85;;;22.00;79.60;;;;;;5013239;28;20029;-85